sensor_id;sensor_type;location;lat;lon;timestamp;P1;durP1;ratioP1;P2;durP2;ratioP2
44989;SDS011;30723;51.206;3.326;2022-12-07T00:00:54;8.25;;;4.03;;
44989;SDS011;30723;51.206;3.326;2022-12-07T00:03:33;10.70;;;3.58;;
44989;SDS011;30723;51.206;3.326;2022-12-07T00:06:00;8.02;;;3.47;;
44989;SDS011;30723;51.206;3.326;2022-12-07T00:08:27;11.32;;;4.13;;
44989;SDS011;30723;51.206;3.326;2022-12-07T00:10:52;6.55;;;3.78;;
44989;SDS011;30723;51.206;3.326;2022-12-07T00:13:18;11.15;;;4.80;;
44989;SDS011;30723;51.206;3.326;2022-12-07T00:15:44;9.90;;;3.90;;
44989;SDS011;30723;51.206;3.326;2022-12-07T00:18:10;11.00;;;4.13;;
44989;SDS011;30723;51.206;3.326;2022-12-07T00:20:36;5.40;;;3.67;;
44989;SDS011;30723;51.206;3.326;2022-12-07T00:23:01;14.25;;;5.35;;
44989;SDS011;30723;51.206;3.326;2022-12-07T00:25:27;11.25;;;5.30;;
44989;SDS011;30723;51.206;3.326;2022-12-07T00:27:53;11.88;;;5.03;;
44989;SDS011;30723;51.206;3.326;2022-12-07T00:30:22;12.88;;;5.75;;
44989;SDS011;30723;51.206;3.326;2022-12-07T00:32:48;8.68;;;4.80;;
44989;SDS011;30723;51.206;3.326;2022-12-07T00:35:14;13.98;;;5.10;;
44989;SDS011;30723;51.206;3.326;2022-12-07T00:37:40;6.93;;;3.03;;
44989;SDS011;30723;51.206;3.326;2022-12-07T00:40:06;7.30;;;2.47;;
44989;SDS011;30723;51.206;3.326;2022-12-07T00:42:32;7.72;;;2.10;;
44989;SDS011;30723;51.206;3.326;2022-12-07T00:44:58;12.23;;;2.78;;
44989;SDS011;30723;51.206;3.326;2022-12-07T00:47:24;9.10;;;1.92;;
44989;SDS011;30723;51.206;3.326;2022-12-07T00:49:50;9.95;;;1.58;;
44989;SDS011;30723;51.206;3.326;2022-12-07T00:52:15;6.38;;;1.45;;
44989;SDS011;30723;51.206;3.326;2022-12-07T00:54:41;11.35;;;1.40;;
44989;SDS011;30723;51.206;3.326;2022-12-07T00:57:07;9.68;;;1.77;;
44989;SDS011;30723;51.206;3.326;2022-12-07T00:59:33;8.90;;;1.95;;
44989;SDS011;30723;51.206;3.326;2022-12-07T01:01:58;6.22;;;2.08;;
44989;SDS011;30723;51.206;3.326;2022-12-07T01:04:24;9.70;;;2.25;;
44989;SDS011;30723;51.206;3.326;2022-12-07T01:06:50;7.20;;;1.55;;
44989;SDS011;30723;51.206;3.326;2022-12-07T01:09:15;7.93;;;1.77;;
44989;SDS011;30723;51.206;3.326;2022-12-07T01:11:41;10.13;;;1.50;;
44989;SDS011;30723;51.206;3.326;2022-12-07T01:14:08;5.55;;;1.27;;
44989;SDS011;30723;51.206;3.326;2022-12-07T01:16:34;6.65;;;1.45;;
44989;SDS011;30723;51.206;3.326;2022-12-07T01:19:00;5.70;;;1.73;;
44989;SDS011;30723;51.206;3.326;2022-12-07T01:21:30;13.43;;;1.80;;
44989;SDS011;30723;51.206;3.326;2022-12-07T01:24:04;11.60;;;2.78;;
44989;SDS011;30723;51.206;3.326;2022-12-07T01:26:32;10.27;;;2.40;;
44989;SDS011;30723;51.206;3.326;2022-12-07T01:28:58;11.57;;;1.88;;
44989;SDS011;30723;51.206;3.326;2022-12-07T01:31:26;11.18;;;2.20;;
44989;SDS011;30723;51.206;3.326;2022-12-07T01:33:54;9.00;;;2.20;;
44989;SDS011;30723;51.206;3.326;2022-12-07T01:36:22;5.63;;;1.75;;
44989;SDS011;30723;51.206;3.326;2022-12-07T01:39:00;17.60;;;3.22;;
44989;SDS011;30723;51.206;3.326;2022-12-07T01:41:30;10.88;;;1.80;;
44989;SDS011;30723;51.206;3.326;2022-12-07T01:46:35;8.65;;;2.13;;
44989;SDS011;30723;51.206;3.326;2022-12-07T01:49:01;7.10;;;1.40;;
44989;SDS011;30723;51.206;3.326;2022-12-07T01:51:31;11.60;;;2.10;;
44989;SDS011;30723;51.206;3.326;2022-12-07T01:53:57;5.40;;;1.45;;
44989;SDS011;30723;51.206;3.326;2022-12-07T01:56:24;5.90;;;1.73;;
44989;SDS011;30723;51.206;3.326;2022-12-07T01:58:52;11.90;;;1.88;;
44989;SDS011;30723;51.206;3.326;2022-12-07T02:01:19;6.97;;;2.30;;
44989;SDS011;30723;51.206;3.326;2022-12-07T02:03:45;13.05;;;2.30;;
44989;SDS011;30723;51.206;3.326;2022-12-07T02:06:12;7.85;;;2.13;;
44989;SDS011;30723;51.206;3.326;2022-12-07T02:08:42;7.32;;;2.42;;
44989;SDS011;30723;51.206;3.326;2022-12-07T02:11:08;10.85;;;2.55;;
44989;SDS011;30723;51.206;3.326;2022-12-07T02:13:35;9.15;;;2.10;;
44989;SDS011;30723;51.206;3.326;2022-12-07T02:16:07;12.55;;;2.58;;
44989;SDS011;30723;51.206;3.326;2022-12-07T02:27:36;9.73;;;2.90;;
44989;SDS011;30723;51.206;3.326;2022-12-07T02:30:13;15.32;;;2.60;;
44989;SDS011;30723;51.206;3.326;2022-12-07T02:35:20;11.70;;;2.30;;
44989;SDS011;30723;51.206;3.326;2022-12-07T02:43:04;8.35;;;1.77;;
44989;SDS011;30723;51.206;3.326;2022-12-07T02:45:55;14.52;;;1.95;;
44989;SDS011;30723;51.206;3.326;2022-12-07T02:48:25;12.48;;;1.83;;
44989;SDS011;30723;51.206;3.326;2022-12-07T02:50:52;5.63;;;1.63;;
44989;SDS011;30723;51.206;3.326;2022-12-07T02:53:35;7.40;;;1.58;;
44989;SDS011;30723;51.206;3.326;2022-12-07T02:56:27;7.35;;;1.48;;
44989;SDS011;30723;51.206;3.326;2022-12-07T03:04:44;13.05;;;1.58;;
44989;SDS011;30723;51.206;3.326;2022-12-07T03:18:16;10.85;;;2.08;;
44989;SDS011;30723;51.206;3.326;2022-12-07T03:20:44;12.77;;;2.30;;
44989;SDS011;30723;51.206;3.326;2022-12-07T03:23:13;14.00;;;1.95;;
44989;SDS011;30723;51.206;3.326;2022-12-07T03:25:44;8.68;;;1.75;;
44989;SDS011;30723;51.206;3.326;2022-12-07T03:28:14;5.45;;;1.50;;
44989;SDS011;30723;51.206;3.326;2022-12-07T03:33:26;5.97;;;1.45;;
44989;SDS011;30723;51.206;3.326;2022-12-07T03:36:04;7.43;;;1.83;;
44989;SDS011;30723;51.206;3.326;2022-12-07T03:38:45;15.07;;;1.70;;
44989;SDS011;30723;51.206;3.326;2022-12-07T03:41:23;16.63;;;1.73;;
44989;SDS011;30723;51.206;3.326;2022-12-07T03:43:53;8.82;;;1.40;;
44989;SDS011;30723;51.206;3.326;2022-12-07T03:46:24;4.38;;;1.13;;
44989;SDS011;30723;51.206;3.326;2022-12-07T03:49:05;4.53;;;1.08;;
44989;SDS011;30723;51.206;3.326;2022-12-07T03:52:11;6.95;;;1.60;;
44989;SDS011;30723;51.206;3.326;2022-12-07T03:54:58;6.07;;;1.38;;
44989;SDS011;30723;51.206;3.326;2022-12-07T03:57:33;15.80;;;2.03;;
44989;SDS011;30723;51.206;3.326;2022-12-07T04:00:03;5.18;;;1.38;;
44989;SDS011;30723;51.206;3.326;2022-12-07T04:02:29;9.13;;;2.20;;
44989;SDS011;30723;51.206;3.326;2022-12-07T04:04:56;13.48;;;2.15;;
44989;SDS011;30723;51.206;3.326;2022-12-07T04:07:22;6.90;;;1.40;;
44989;SDS011;30723;51.206;3.326;2022-12-07T04:09:47;12.18;;;1.58;;
44989;SDS011;30723;51.206;3.326;2022-12-07T04:12:13;6.15;;;1.88;;
44989;SDS011;30723;51.206;3.326;2022-12-07T04:14:39;13.30;;;1.80;;
44989;SDS011;30723;51.206;3.326;2022-12-07T04:17:04;20.98;;;1.60;;
44989;SDS011;30723;51.206;3.326;2022-12-07T04:19:31;15.07;;;1.80;;
44989;SDS011;30723;51.206;3.326;2022-12-07T04:21:59;10.30;;;1.77;;
44989;SDS011;30723;51.206;3.326;2022-12-07T04:24:27;6.18;;;1.40;;
44989;SDS011;30723;51.206;3.326;2022-12-07T04:26:53;4.20;;;1.40;;
44989;SDS011;30723;51.206;3.326;2022-12-07T04:29:19;8.45;;;1.73;;
44989;SDS011;30723;51.206;3.326;2022-12-07T04:31:45;12.27;;;1.73;;
44989;SDS011;30723;51.206;3.326;2022-12-07T04:34:11;12.98;;;1.63;;
44989;SDS011;30723;51.206;3.326;2022-12-07T04:36:38;12.98;;;1.65;;
44989;SDS011;30723;51.206;3.326;2022-12-07T04:39:05;9.40;;;1.73;;
44989;SDS011;30723;51.206;3.326;2022-12-07T04:41:32;8.77;;;2.00;;
44989;SDS011;30723;51.206;3.326;2022-12-07T04:44:02;7.22;;;2.15;;
44989;SDS011;30723;51.206;3.326;2022-12-07T04:46:29;11.13;;;2.22;;
44989;SDS011;30723;51.206;3.326;2022-12-07T04:48:56;15.23;;;1.92;;
44989;SDS011;30723;51.206;3.326;2022-12-07T04:51:23;10.93;;;2.00;;
44989;SDS011;30723;51.206;3.326;2022-12-07T04:53:51;14.85;;;2.03;;
44989;SDS011;30723;51.206;3.326;2022-12-07T04:56:17;8.90;;;1.60;;
44989;SDS011;30723;51.206;3.326;2022-12-07T04:58:44;11.98;;;2.22;;
44989;SDS011;30723;51.206;3.326;2022-12-07T05:01:11;6.30;;;1.80;;
44989;SDS011;30723;51.206;3.326;2022-12-07T05:03:38;12.75;;;2.17;;
44989;SDS011;30723;51.206;3.326;2022-12-07T05:06:04;16.35;;;2.63;;
44989;SDS011;30723;51.206;3.326;2022-12-07T05:08:31;12.70;;;1.55;;
44989;SDS011;30723;51.206;3.326;2022-12-07T05:10:58;10.75;;;2.13;;
44989;SDS011;30723;51.206;3.326;2022-12-07T05:13:24;8.15;;;1.85;;
44989;SDS011;30723;51.206;3.326;2022-12-07T05:15:50;11.95;;;2.17;;
44989;SDS011;30723;51.206;3.326;2022-12-07T05:18:15;7.63;;;1.98;;
44989;SDS011;30723;51.206;3.326;2022-12-07T05:20:41;10.18;;;2.25;;
44989;SDS011;30723;51.206;3.326;2022-12-07T05:23:08;11.57;;;1.65;;
44989;SDS011;30723;51.206;3.326;2022-12-07T05:25:34;11.02;;;2.15;;
44989;SDS011;30723;51.206;3.326;2022-12-07T05:28:00;11.50;;;2.25;;
44989;SDS011;30723;51.206;3.326;2022-12-07T05:30:26;11.85;;;2.20;;
44989;SDS011;30723;51.206;3.326;2022-12-07T05:32:52;7.55;;;2.15;;
44989;SDS011;30723;51.206;3.326;2022-12-07T05:35:18;13.48;;;2.00;;
44989;SDS011;30723;51.206;3.326;2022-12-07T05:37:44;15.13;;;2.15;;
44989;SDS011;30723;51.206;3.326;2022-12-07T05:40:10;12.95;;;1.63;;
44989;SDS011;30723;51.206;3.326;2022-12-07T05:42:38;9.32;;;2.03;;
44989;SDS011;30723;51.206;3.326;2022-12-07T05:45:05;11.88;;;1.95;;
44989;SDS011;30723;51.206;3.326;2022-12-07T05:47:31;6.25;;;2.00;;
44989;SDS011;30723;51.206;3.326;2022-12-07T05:49:57;9.85;;;3.40;;
44989;SDS011;30723;51.206;3.326;2022-12-07T05:52:23;7.93;;;2.22;;
44989;SDS011;30723;51.206;3.326;2022-12-07T05:54:49;11.98;;;2.47;;
44989;SDS011;30723;51.206;3.326;2022-12-07T05:57:14;6.55;;;1.80;;
44989;SDS011;30723;51.206;3.326;2022-12-07T05:59:40;8.20;;;3.10;;
44989;SDS011;30723;51.206;3.326;2022-12-07T06:02:07;7.70;;;2.10;;
44989;SDS011;30723;51.206;3.326;2022-12-07T06:04:40;7.97;;;2.15;;
44989;SDS011;30723;51.206;3.326;2022-12-07T06:07:08;9.80;;;2.88;;
44989;SDS011;30723;51.206;3.326;2022-12-07T06:09:35;12.13;;;2.67;;
44989;SDS011;30723;51.206;3.326;2022-12-07T06:12:01;11.98;;;2.50;;
44989;SDS011;30723;51.206;3.326;2022-12-07T06:14:46;8.63;;;2.65;;
44989;SDS011;30723;51.206;3.326;2022-12-07T06:17:13;13.52;;;5.30;;
44989;SDS011;30723;51.206;3.326;2022-12-07T06:19:39;13.07;;;2.60;;
44989;SDS011;30723;51.206;3.326;2022-12-07T06:22:05;10.73;;;2.40;;
44989;SDS011;30723;51.206;3.326;2022-12-07T06:24:32;11.10;;;2.42;;
44989;SDS011;30723;51.206;3.326;2022-12-07T06:26:58;8.07;;;2.50;;
44989;SDS011;30723;51.206;3.326;2022-12-07T06:29:24;12.80;;;2.78;;
44989;SDS011;30723;51.206;3.326;2022-12-07T06:31:50;10.63;;;2.60;;
44989;SDS011;30723;51.206;3.326;2022-12-07T06:34:17;13.50;;;2.92;;
44989;SDS011;30723;51.206;3.326;2022-12-07T06:36:48;7.28;;;2.55;;
44989;SDS011;30723;51.206;3.326;2022-12-07T06:39:19;12.20;;;3.00;;
44989;SDS011;30723;51.206;3.326;2022-12-07T06:41:46;9.55;;;3.30;;
44989;SDS011;30723;51.206;3.326;2022-12-07T06:44:12;9.93;;;3.03;;
44989;SDS011;30723;51.206;3.326;2022-12-07T06:46:38;15.43;;;3.35;;
44989;SDS011;30723;51.206;3.326;2022-12-07T06:49:04;21.27;;;4.05;;
44989;SDS011;30723;51.206;3.326;2022-12-07T06:51:31;19.25;;;7.30;;
44989;SDS011;30723;51.206;3.326;2022-12-07T06:53:57;18.40;;;8.80;;
44989;SDS011;30723;51.206;3.326;2022-12-07T06:56:23;20.13;;;5.78;;
44989;SDS011;30723;51.206;3.326;2022-12-07T06:58:49;15.18;;;8.15;;
44989;SDS011;30723;51.206;3.326;2022-12-07T07:01:16;27.33;;;10.90;;
44989;SDS011;30723;51.206;3.326;2022-12-07T07:03:43;19.83;;;7.10;;
44989;SDS011;30723;51.206;3.326;2022-12-07T07:06:11;13.07;;;7.32;;
44989;SDS011;30723;51.206;3.326;2022-12-07T07:08:37;19.08;;;8.70;;
44989;SDS011;30723;51.206;3.326;2022-12-07T07:11:04;17.95;;;8.32;;
44989;SDS011;30723;51.206;3.326;2022-12-07T07:13:31;25.17;;;11.77;;
44989;SDS011;30723;51.206;3.326;2022-12-07T07:15:57;34.17;;;13.43;;
44989;SDS011;30723;51.206;3.326;2022-12-07T07:18:23;15.90;;;6.25;;
44989;SDS011;30723;51.206;3.326;2022-12-07T07:20:52;10.32;;;4.80;;
44989;SDS011;30723;51.206;3.326;2022-12-07T07:23:19;13.57;;;5.28;;
44989;SDS011;30723;51.206;3.326;2022-12-07T07:25:45;14.73;;;3.70;;
44989;SDS011;30723;51.206;3.326;2022-12-07T07:28:11;19.40;;;4.55;;
44989;SDS011;30723;51.206;3.326;2022-12-07T07:30:36;11.02;;;4.22;;
44989;SDS011;30723;51.206;3.326;2022-12-07T07:33:03;10.23;;;3.28;;
44989;SDS011;30723;51.206;3.326;2022-12-07T07:35:31;11.95;;;3.10;;
44989;SDS011;30723;51.206;3.326;2022-12-07T07:37:58;11.25;;;3.10;;
44989;SDS011;30723;51.206;3.326;2022-12-07T07:40:24;12.95;;;3.65;;
44989;SDS011;30723;51.206;3.326;2022-12-07T07:42:50;10.55;;;2.85;;
44989;SDS011;30723;51.206;3.326;2022-12-07T07:45:18;16.33;;;4.22;;
44989;SDS011;30723;51.206;3.326;2022-12-07T07:47:48;12.45;;;5.07;;
44989;SDS011;30723;51.206;3.326;2022-12-07T07:50:14;15.85;;;4.80;;
44989;SDS011;30723;51.206;3.326;2022-12-07T07:52:41;14.65;;;7.20;;
44989;SDS011;30723;51.206;3.326;2022-12-07T07:55:07;41.83;;;22.50;;
44989;SDS011;30723;51.206;3.326;2022-12-07T07:57:36;180.68;;;111.60;;
44989;SDS011;30723;51.206;3.326;2022-12-07T08:00:06;49.58;;;28.33;;
44989;SDS011;30723;51.206;3.326;2022-12-07T08:02:34;87.97;;;57.83;;
44989;SDS011;30723;51.206;3.326;2022-12-07T08:04:59;26.20;;;9.85;;
44989;SDS011;30723;51.206;3.326;2022-12-07T08:07:27;20.63;;;8.80;;
44989;SDS011;30723;51.206;3.326;2022-12-07T08:09:53;13.15;;;4.63;;
44989;SDS011;30723;51.206;3.326;2022-12-07T08:12:19;25.20;;;13.88;;
44989;SDS011;30723;51.206;3.326;2022-12-07T08:14:44;32.28;;;19.10;;
44989;SDS011;30723;51.206;3.326;2022-12-07T08:17:10;33.80;;;12.18;;
44989;SDS011;30723;51.206;3.326;2022-12-07T08:19:37;37.15;;;19.83;;
44989;SDS011;30723;51.206;3.326;2022-12-07T08:22:03;40.50;;;20.80;;
44989;SDS011;30723;51.206;3.326;2022-12-07T08:24:29;53.55;;;31.13;;
44989;SDS011;30723;51.206;3.326;2022-12-07T08:26:55;40.10;;;25.50;;
44989;SDS011;30723;51.206;3.326;2022-12-07T08:29:21;34.20;;;18.02;;
44989;SDS011;30723;51.206;3.326;2022-12-07T08:31:47;21.25;;;12.70;;
44989;SDS011;30723;51.206;3.326;2022-12-07T08:34:13;23.42;;;9.98;;
44989;SDS011;30723;51.206;3.326;2022-12-07T08:36:39;85.72;;;49.03;;
44989;SDS011;30723;51.206;3.326;2022-12-07T08:39:05;74.70;;;38.67;;
44989;SDS011;30723;51.206;3.326;2022-12-07T08:41:31;108.75;;;53.97;;
44989;SDS011;30723;51.206;3.326;2022-12-07T08:43:57;45.67;;;26.65;;
44989;SDS011;30723;51.206;3.326;2022-12-07T08:46:36;34.05;;;18.40;;
44989;SDS011;30723;51.206;3.326;2022-12-07T08:49:19;67.03;;;40.92;;
44989;SDS011;30723;51.206;3.326;2022-12-07T08:51:47;35.50;;;19.42;;
44989;SDS011;30723;51.206;3.326;2022-12-07T08:54:14;50.03;;;29.05;;
44989;SDS011;30723;51.206;3.326;2022-12-07T08:56:41;61.17;;;40.72;;
44989;SDS011;30723;51.206;3.326;2022-12-07T08:59:08;34.85;;;21.73;;
44989;SDS011;30723;51.206;3.326;2022-12-07T09:01:36;34.15;;;17.55;;
44989;SDS011;30723;51.206;3.326;2022-12-07T09:04:02;31.75;;;13.55;;
44989;SDS011;30723;51.206;3.326;2022-12-07T09:06:28;28.42;;;8.55;;
44989;SDS011;30723;51.206;3.326;2022-12-07T09:08:55;19.10;;;6.95;;
44989;SDS011;30723;51.206;3.326;2022-12-07T09:11:24;19.60;;;5.80;;
44989;SDS011;30723;51.206;3.326;2022-12-07T09:13:50;22.83;;;5.75;;
44989;SDS011;30723;51.206;3.326;2022-12-07T09:16:15;28.63;;;5.60;;
44989;SDS011;30723;51.206;3.326;2022-12-07T09:18:41;15.23;;;5.40;;
44989;SDS011;30723;51.206;3.326;2022-12-07T09:21:07;15.65;;;5.18;;
44989;SDS011;30723;51.206;3.326;2022-12-07T09:23:33;24.15;;;5.85;;
44989;SDS011;30723;51.206;3.326;2022-12-07T09:25:59;12.15;;;4.22;;
44989;SDS011;30723;51.206;3.326;2022-12-07T09:28:26;13.70;;;5.05;;
44989;SDS011;30723;51.206;3.326;2022-12-07T09:30:52;17.55;;;5.13;;
44989;SDS011;30723;51.206;3.326;2022-12-07T09:33:17;15.15;;;6.18;;
44989;SDS011;30723;51.206;3.326;2022-12-07T09:35:49;27.23;;;6.82;;
44989;SDS011;30723;51.206;3.326;2022-12-07T09:38:17;14.85;;;5.75;;
44989;SDS011;30723;51.206;3.326;2022-12-07T09:40:44;31.77;;;6.13;;
44989;SDS011;30723;51.206;3.326;2022-12-07T09:43:17;29.20;;;14.98;;
44989;SDS011;30723;51.206;3.326;2022-12-07T09:45:45;25.00;;;10.82;;
44989;SDS011;30723;51.206;3.326;2022-12-07T09:48:20;22.60;;;8.90;;
44989;SDS011;30723;51.206;3.326;2022-12-07T09:50:49;16.45;;;6.18;;
44989;SDS011;30723;51.206;3.326;2022-12-07T09:53:20;16.58;;;7.80;;
44989;SDS011;30723;51.206;3.326;2022-12-07T09:55:53;18.30;;;6.03;;
44989;SDS011;30723;51.206;3.326;2022-12-07T09:58:21;11.77;;;5.80;;
44989;SDS011;30723;51.206;3.326;2022-12-07T10:00:59;14.03;;;4.30;;
44989;SDS011;30723;51.206;3.326;2022-12-07T10:03:40;8.35;;;3.67;;
44989;SDS011;30723;51.206;3.326;2022-12-07T10:06:10;12.80;;;3.95;;
44989;SDS011;30723;51.206;3.326;2022-12-07T10:08:37;20.25;;;4.43;;
44989;SDS011;30723;51.206;3.326;2022-12-07T10:11:03;14.20;;;4.47;;
44989;SDS011;30723;51.206;3.326;2022-12-07T10:13:36;20.40;;;7.90;;
44989;SDS011;30723;51.206;3.326;2022-12-07T10:16:03;28.05;;;11.82;;
44989;SDS011;30723;51.206;3.326;2022-12-07T10:18:31;69.65;;;37.28;;
44989;SDS011;30723;51.206;3.326;2022-12-07T10:24:05;23.83;;;14.60;;
44989;SDS011;30723;51.206;3.326;2022-12-07T10:31:43;28.58;;;11.63;;
44989;SDS011;30723;51.206;3.326;2022-12-07T10:34:21;21.75;;;10.32;;
44989;SDS011;30723;51.206;3.326;2022-12-07T10:39:45;14.23;;;6.35;;
44989;SDS011;30723;51.206;3.326;2022-12-07T10:42:21;16.10;;;4.88;;
44989;SDS011;30723;51.206;3.326;2022-12-07T10:45:07;17.58;;;3.80;;
44989;SDS011;30723;51.206;3.326;2022-12-07T10:47:51;12.00;;;4.13;;
44989;SDS011;30723;51.206;3.326;2022-12-07T10:50:43;10.38;;;2.05;;
44989;SDS011;30723;51.206;3.326;2022-12-07T11:01:30;13.15;;;2.75;;
44989;SDS011;30723;51.206;3.326;2022-12-07T11:07:12;6.90;;;1.92;;
44989;SDS011;30723;51.206;3.326;2022-12-07T11:15:26;5.90;;;1.90;;
44989;SDS011;30723;51.206;3.326;2022-12-07T11:24:04;6.10;;;0.80;;
44989;SDS011;30723;51.206;3.326;2022-12-07T11:34:28;2.85;;;0.70;;
44989;SDS011;30723;51.206;3.326;2022-12-07T11:37:35;2.05;;;0.47;;
44989;SDS011;30723;51.206;3.326;2022-12-07T11:40:04;1.58;;;0.38;;
44989;SDS011;30723;51.206;3.326;2022-12-07T11:42:53;3.97;;;0.50;;
44989;SDS011;30723;51.206;3.326;2022-12-07T11:45:28;6.72;;;0.60;;
44989;SDS011;30723;51.206;3.326;2022-12-07T11:48:01;6.03;;;0.85;;
44989;SDS011;30723;51.206;3.326;2022-12-07T11:50:40;4.57;;;1.35;;
44989;SDS011;30723;51.206;3.326;2022-12-07T11:53:10;5.28;;;1.50;;
44989;SDS011;30723;51.206;3.326;2022-12-07T11:56:01;5.72;;;1.30;;
44989;SDS011;30723;51.206;3.326;2022-12-07T12:05:05;8.23;;;1.33;;
44989;SDS011;30723;51.206;3.326;2022-12-07T12:07:10;4.07;;;1.77;;
44989;SDS011;30723;51.206;3.326;2022-12-07T12:09:45;6.28;;;1.52;;
44989;SDS011;30723;51.206;3.326;2022-12-07T12:15:33;3.42;;;0.98;;
44989;SDS011;30723;51.206;3.326;2022-12-07T12:20:46;5.93;;;2.10;;
44989;SDS011;30723;51.206;3.326;2022-12-07T12:25:48;6.40;;;1.55;;
44989;SDS011;30723;51.206;3.326;2022-12-07T12:28:18;9.02;;;1.38;;
44989;SDS011;30723;51.206;3.326;2022-12-07T12:31:04;7.75;;;0.98;;
44989;SDS011;30723;51.206;3.326;2022-12-07T12:33:55;4.75;;;1.30;;
44989;SDS011;30723;51.206;3.326;2022-12-07T12:46:54;4.57;;;1.25;;
44989;SDS011;30723;51.206;3.326;2022-12-07T12:51:49;2.35;;;0.90;;
44989;SDS011;30723;51.206;3.326;2022-12-07T12:56:48;5.72;;;1.10;;
44989;SDS011;30723;51.206;3.326;2022-12-07T13:08:10;5.78;;;1.27;;
44989;SDS011;30723;51.206;3.326;2022-12-07T13:21:00;8.73;;;1.63;;
44989;SDS011;30723;51.206;3.326;2022-12-07T13:23:36;7.53;;;1.50;;
44989;SDS011;30723;51.206;3.326;2022-12-07T13:26:13;4.95;;;1.40;;
44989;SDS011;30723;51.206;3.326;2022-12-07T13:28:43;8.15;;;1.90;;
44989;SDS011;30723;51.206;3.326;2022-12-07T13:31:18;6.07;;;1.73;;
44989;SDS011;30723;51.206;3.326;2022-12-07T13:33:46;4.38;;;1.00;;
44989;SDS011;30723;51.206;3.326;2022-12-07T13:39:20;4.57;;;1.10;;
44989;SDS011;30723;51.206;3.326;2022-12-07T13:44:24;11.70;;;2.75;;
44989;SDS011;30723;51.206;3.326;2022-12-07T13:49:30;10.35;;;1.60;;
44989;SDS011;30723;51.206;3.326;2022-12-07T13:52:14;8.00;;;1.30;;
44989;SDS011;30723;51.206;3.326;2022-12-07T13:54:45;8.63;;;1.45;;
44989;SDS011;30723;51.206;3.326;2022-12-07T13:57:14;7.32;;;1.63;;
44989;SDS011;30723;51.206;3.326;2022-12-07T13:59:41;9.18;;;1.30;;
44989;SDS011;30723;51.206;3.326;2022-12-07T14:02:27;7.03;;;1.13;;
44989;SDS011;30723;51.206;3.326;2022-12-07T14:07:32;7.10;;;0.85;;
44989;SDS011;30723;51.206;3.326;2022-12-07T14:10:00;7.80;;;1.30;;
44989;SDS011;30723;51.206;3.326;2022-12-07T14:12:28;3.03;;;0.88;;
44989;SDS011;30723;51.206;3.326;2022-12-07T14:14:55;2.38;;;0.73;;
44989;SDS011;30723;51.206;3.326;2022-12-07T14:17:26;8.13;;;0.88;;
44989;SDS011;30723;51.206;3.326;2022-12-07T14:19:53;7.72;;;1.10;;
44989;SDS011;30723;51.206;3.326;2022-12-07T14:22:30;3.47;;;0.90;;
44989;SDS011;30723;51.206;3.326;2022-12-07T14:27:38;6.25;;;1.63;;
44989;SDS011;30723;51.206;3.326;2022-12-07T14:30:05;7.82;;;1.05;;
44989;SDS011;30723;51.206;3.326;2022-12-07T14:32:31;6.80;;;1.65;;
44989;SDS011;30723;51.206;3.326;2022-12-07T14:35:00;7.78;;;1.60;;
44989;SDS011;30723;51.206;3.326;2022-12-07T14:37:33;7.93;;;1.50;;
44989;SDS011;30723;51.206;3.326;2022-12-07T14:39:58;4.47;;;1.20;;
44989;SDS011;30723;51.206;3.326;2022-12-07T14:42:26;3.40;;;1.15;;
44989;SDS011;30723;51.206;3.326;2022-12-07T14:44:54;4.68;;;1.45;;
44989;SDS011;30723;51.206;3.326;2022-12-07T14:47:20;4.95;;;1.35;;
44989;SDS011;30723;51.206;3.326;2022-12-07T14:49:47;5.90;;;2.03;;
44989;SDS011;30723;51.206;3.326;2022-12-07T14:52:19;9.55;;;2.50;;
44989;SDS011;30723;51.206;3.326;2022-12-07T14:54:48;7.97;;;2.50;;
44989;SDS011;30723;51.206;3.326;2022-12-07T14:57:14;6.85;;;2.03;;
44989;SDS011;30723;51.206;3.326;2022-12-07T14:59:40;5.80;;;2.60;;
44989;SDS011;30723;51.206;3.326;2022-12-07T15:02:06;6.85;;;2.13;;
44989;SDS011;30723;51.206;3.326;2022-12-07T15:04:34;5.20;;;2.00;;
44989;SDS011;30723;51.206;3.326;2022-12-07T15:07:04;8.93;;;3.00;;
44989;SDS011;30723;51.206;3.326;2022-12-07T15:11:56;6.10;;;2.17;;
44989;SDS011;30723;51.206;3.326;2022-12-07T15:14:22;5.28;;;1.83;;
44989;SDS011;30723;51.206;3.326;2022-12-07T15:16:48;7.50;;;1.70;;
44989;SDS011;30723;51.206;3.326;2022-12-07T15:19:17;3.97;;;1.63;;
44989;SDS011;30723;51.206;3.326;2022-12-07T15:24:11;6.53;;;2.25;;
44989;SDS011;30723;51.206;3.326;2022-12-07T15:26:37;7.60;;;4.20;;
44989;SDS011;30723;51.206;3.326;2022-12-07T15:29:04;12.25;;;4.30;;
44989;SDS011;30723;51.206;3.326;2022-12-07T15:31:31;6.88;;;3.40;;
44989;SDS011;30723;51.206;3.326;2022-12-07T15:33:57;18.17;;;4.20;;
44989;SDS011;30723;51.206;3.326;2022-12-07T15:36:25;9.27;;;3.42;;
44989;SDS011;30723;51.206;3.326;2022-12-07T15:38:52;9.60;;;3.50;;
44989;SDS011;30723;51.206;3.326;2022-12-07T15:41:18;7.85;;;3.65;;
44989;SDS011;30723;51.206;3.326;2022-12-07T15:43:44;10.07;;;4.78;;
44989;SDS011;30723;51.206;3.326;2022-12-07T15:46:33;12.35;;;4.93;;
44989;SDS011;30723;51.206;3.326;2022-12-07T15:49:00;18.15;;;5.40;;
44989;SDS011;30723;51.206;3.326;2022-12-07T15:51:27;12.57;;;5.28;;
44989;SDS011;30723;51.206;3.326;2022-12-07T15:53:52;30.38;;;22.50;;
44989;SDS011;30723;51.206;3.326;2022-12-07T15:56:18;19.25;;;9.70;;
44989;SDS011;30723;51.206;3.326;2022-12-07T15:58:44;20.40;;;7.43;;
44989;SDS011;30723;51.206;3.326;2022-12-07T16:01:14;60.10;;;15.70;;
44989;SDS011;30723;51.206;3.326;2022-12-07T16:06:07;68.20;;;13.88;;
44989;SDS011;30723;51.206;3.326;2022-12-07T16:08:33;49.95;;;12.02;;
44989;SDS011;30723;51.206;3.326;2022-12-07T16:10:59;26.95;;;8.95;;
44989;SDS011;30723;51.206;3.326;2022-12-07T16:13:24;27.65;;;10.98;;
44989;SDS011;30723;51.206;3.326;2022-12-07T16:15:50;32.97;;;12.90;;
44989;SDS011;30723;51.206;3.326;2022-12-07T16:18:16;39.85;;;18.63;;
44989;SDS011;30723;51.206;3.326;2022-12-07T16:20:42;25.80;;;13.43;;
44989;SDS011;30723;51.206;3.326;2022-12-07T16:23:07;23.55;;;12.20;;
44989;SDS011;30723;51.206;3.326;2022-12-07T16:25:33;28.73;;;15.85;;
44989;SDS011;30723;51.206;3.326;2022-12-07T16:27:59;30.58;;;14.93;;
44989;SDS011;30723;51.206;3.326;2022-12-07T16:30:25;21.65;;;10.63;;
44989;SDS011;30723;51.206;3.326;2022-12-07T16:32:51;16.80;;;9.15;;
44989;SDS011;30723;51.206;3.326;2022-12-07T16:35:16;37.53;;;15.88;;
44989;SDS011;30723;51.206;3.326;2022-12-07T16:37:42;28.92;;;13.82;;
44989;SDS011;30723;51.206;3.326;2022-12-07T16:40:08;23.60;;;11.95;;
44989;SDS011;30723;51.206;3.326;2022-12-07T16:42:35;25.15;;;16.63;;
44989;SDS011;30723;51.206;3.326;2022-12-07T16:45:02;20.55;;;13.00;;
44989;SDS011;30723;51.206;3.326;2022-12-07T16:47:28;16.48;;;7.95;;
44989;SDS011;30723;51.206;3.326;2022-12-07T16:49:53;17.35;;;9.95;;
44989;SDS011;30723;51.206;3.326;2022-12-07T16:52:19;26.40;;;15.70;;
44989;SDS011;30723;51.206;3.326;2022-12-07T16:54:47;35.55;;;22.83;;
44989;SDS011;30723;51.206;3.326;2022-12-07T16:57:13;46.72;;;33.30;;
44989;SDS011;30723;51.206;3.326;2022-12-07T16:59:40;34.20;;;20.80;;
44989;SDS011;30723;51.206;3.326;2022-12-07T17:02:05;20.88;;;12.65;;
44989;SDS011;30723;51.206;3.326;2022-12-07T17:04:32;55.70;;;36.90;;
44989;SDS011;30723;51.206;3.326;2022-12-07T17:06:58;25.35;;;12.52;;
44989;SDS011;30723;51.206;3.326;2022-12-07T17:09:24;49.65;;;29.60;;
44989;SDS011;30723;51.206;3.326;2022-12-07T17:11:50;89.32;;;62.70;;
44989;SDS011;30723;51.206;3.326;2022-12-07T17:14:16;39.05;;;23.05;;
44989;SDS011;30723;51.206;3.326;2022-12-07T17:17:00;21.27;;;10.57;;
44989;SDS011;30723;51.206;3.326;2022-12-07T17:19:26;33.65;;;19.20;;